Historyczne dane pomiarowe

Dodano dane terminowe – wersja testowa.

Dane z okresu 1951-2019

Wersja bazy: 1.34 [2019-03-16, lista zmian], aktualizacja planowana na 2019-04-15

Dane meteo z obszaru Polski uzyskane na podstawie danych udostępnionych przez Instytut Meteorologii i Gospodarki Wodnej – Państwowy Instytut Badawczy.

 

Wybierz Datę:    

       

TemperaturaWilgotnośćWiatrCiśnienieOpadyŚniegCzas trwania zjawisk
 Stacja t tx tn tng RH VA  wxwx mslp ppp RRR   cm mm wxwxwxwxwxwxwx
1999-08-14 15.5 22.9 7.6 3.0-- 4.3 1.7---- 7.4------------
1999-08-13 15.5 20.5 11.0 7.0-- 4.7 3.7---- 0.0------------
1999-08-12 16.2 20.5 12.5 10.0-- 5.0 3.0---- 0.0------------
1999-08-11 18.8 23.4 15.9 13.4-- 5.7 5.3---- 0.0------------
1999-08-10 21.6 26.1 17.9 14.4-- 5.0 3.3---- 0.0------------
1999-08-09 21.6 28.3 16.1 11.9-- 2.7 3.0---- 1.8------------
1999-08-08 23.3 30.2 16.6 15.4-- 4.0 2.0---- 1.2------------
1999-08-07 20.8 29.9 12.7 9.0-- 5.0 0.3---- 0.0------------
1999-08-06 22.4 28.7 16.9 13.9-- 2.0 2.7---- 0.0------------
1999-08-05 20.3 29.4 10.8 6.8-- 3.0 2.7---- 0.0------------
1999-08-04 20.1 29.2 10.6 6.0-- 1.0 0.7---- 0.0------------
1999-08-03 19.6 28.2 10.6 6.0-- 1.3 1.0---- 0.0------------
1999-08-02 19.6 27.9 10.8 5.5-- 2.0 1.7---- 0.0------------
1999-08-01 21.1 28.3 12.4 6.5-- 1.3 3.0---- 0.0------------
1999-07-31 20.9 28.4 11.8 8.7-- 2.3 1.7---- 0.0------------
1999-07-30 19.8 27.5 11.0 7.0-- 1.3 2.0---- 0.0------------
1999-07-29 19.6 26.7 11.0 6.5-- 2.0 2.3---- 0.0------------
1999-07-28 19.3 26.2 10.7 8.5-- 1.7 2.3---- 0.0------------
1999-07-27 18.2 22.9 12.8 9.5-- 1.3 3.0---- 0.0------------
1999-07-26 20.4 25.7 15.4 11.8-- 2.0 3.3---- 0.0------------
1999-07-25 20.9 26.9 14.4 12.4-- 5.3 2.3---- 0.0------------
1999-07-24 17.0 20.3 14.5 13.4-- 6.7 3.0---- 0.0------------
1999-07-23 16.2 20.6 12.2 10.2-- 8.0 3.0---- 0.0------------
1999-07-22 19.2 24.2 14.8 11.9-- 3.7 4.7---- 0.0------------
1999-07-21 22.3 26.7 17.1 15.4-- 3.7 5.0---- 0.8------------
1999-07-20 23.2 31.7 15.5 11.5-- 4.7 4.0---- 0.6------------
1999-07-19 24.6 32.3 15.1 11.5-- 1.7 2.7---- 0.0------------
1999-07-18 22.1 30.2 11.0 10.8-- 1.7 2.3---- 0.0------------
1999-07-17 18.9 25.9 11.0 8.6-- 2.7 2.3---- 0.0------------
1999-07-16 16.7 22.2 10.7 9.0-- 4.3 2.0---- 0.0------------
1999-07-15 16.8 21.1 12.5 10.5-- 5.0 2.3---- 5.0------------
1999-07-14 19.9 24.8 16.7 16.3-- 7.3 2.3---- 0.7------------
1999-07-13 22.9 28.7 16.9 14.5-- 5.0 2.3---- 3.8------------
1999-07-12 21.4 29.5 15.5 15.1-- 5.0 1.3---- 0.2------------
1999-07-11 21.0 26.7 13.7 9.5-- 4.7 2.3---- 0.0------------
1999-07-10 21.0 27.0 14.8 12.9-- 1.0 3.0---- 0.0------------
1999-07-09 19.4 24.7 14.6 14.3-- 3.0 4.0---- 0.0------------
1999-07-08 18.0 21.3 15.9 14.3-- 6.7 3.3---- 3.3------------
1999-07-07 18.0 21.2 15.4 14.9-- 7.3 2.3---- 0.0------------
1999-07-06 22.2 27.8 17.7 16.8-- 6.7 3.3---- 15.5------------
1999-07-05 25.1 32.9 16.5 14.9-- 4.3 3.0---- 0.0------------
1999-07-04 23.3 29.7 17.3 13.9-- 1.7 2.0---- 3.7------------
1999-07-03 21.4 27.1 14.3 12.9-- 1.0 1.3---- 0.0------------
1999-07-02 18.7 21.9 14.4 12.4-- 3.0 1.3---- 0.9------------
1999-07-01 19.5 22.3 16.5 15.4-- 4.3 2.0---- 9.8------------
1999-06-30 19.8 26.5 13.2 10.0-- 5.3 1.3---- 8.3------------
1999-06-29 18.5 24.2 11.0 8.6-- 1.0 1.7---- 0.0------------
1999-06-28 20.1 25.9 14.8 11.5-- 5.0 3.3---- 2.0------------
1999-06-27 19.6 25.5 11.5 8.4-- 6.3 4.3---- 0.0------------
1999-06-26 14.5 20.3 5.2 2.8-- 2.3 2.0---- 0.0------------
1999-06-25 13.6 19.0 8.6 4.5-- 1.7 1.7---- 0.0------------
1999-06-24 13.3 18.8 6.8 2.8-- 6.7 1.7---- 0.0------------
1999-06-23 13.8 17.4 9.5 7.2-- 3.3 3.3---- 0.0------------
1999-06-22 12.5 15.2 10.4 7.8-- 7.3 2.7---- 0.8------------
1999-06-21 16.5 21.2 13.5 12.4-- 6.3 2.3---- 0.8------------
1999-06-20 18.0 22.3 12.4 10.8-- 3.7 3.0---- 0.1------------
1999-06-19 17.9 22.3 13.3 11.8-- 4.7 2.0---- 0.0------------
1999-06-18 17.3 21.2 14.5 12.4-- 7.3 3.0---- 3.2------------
1999-06-17 19.1 23.0 15.0 12.5-- 4.3 1.7---- 0.0------------
1999-06-16 17.2 21.3 12.2 9.7-- 3.7 1.7---- 0.0------------
320.5 ms

 

Źródłem pochodzenia danych jest Instytut Meteorologii i Gospodarki Wodnej – Państwowy Instytut Badawczy. Dane Instytutu Meteorologii i Gospodarki Wodnej – Państwowego Instytutu Badawczego zostały przetworzone.

Dane źródłowe można odnaleźć na stronie https://dane.imgw.pl